Time;durP1;ratioP1;P1;durP2;ratioP2;P2;SDS_P1;SDS_P2;PMS_P1;PMS_P2;Temp;Humidity;BMP_temperature;BMP_pressure;BME280_temperature;BME280_humidity;BME280_pressure;Samples;Min_cycle;Max_cycle;Signal;HPM_P1;HPM_P2
2024/01/15 00:01:09;;;;;;;0.10;0.00;;;;;;;-3.32;72.12;98597.84;5019167;28;20109;-74
2024/01/15 00:03:38;;;;;;;0.10;0.05;;;;;;;-3.31;71.78;98603.81;5020629;28;20045;-74
2024/01/15 00:06:05;;;;;;;0.30;0.00;;;;;;;-3.33;72.24;98603.84;5019365;28;20116;-75
2024/01/15 00:08:32;;;;;;;0.17;0.00;;;;;;;-3.36;71.77;98596.16;5021549;28;20081;-74
2024/01/15 00:10:59;;;;;;;0.45;0.00;;;;;;;-3.41;71.58;98587.66;5020265;28;20073;-74
2024/01/15 00:13:26;;;;;;;2.35;0.00;;;;;;;-3.44;71.71;98582.53;5021151;28;20080;-74
2024/01/15 00:15:53;;;;;;;1.25;0.00;;;;;;;-3.48;72.09;98575.72;5021667;28;20052;-73
2024/01/15 00:18:20;;;;;;;0.40;0.10;;;;;;;-3.51;71.57;98583.38;5022591;28;20125;-72
2024/01/15 00:20:48;;;;;;;0.20;0.00;;;;;;;-3.53;71.19;98590.22;5027137;28;20423;-73
2024/01/15 00:23:15;;;;;;;0.45;0.00;;;;;;;-3.55;71.21;98587.66;5020631;28;20488;-73
2024/01/15 00:25:42;;;;;;;0.00;0.00;;;;;;;-3.55;71.39;98590.22;5022492;28;20099;-74
2024/01/15 00:28:09;;;;;;;0.82;0.05;;;;;;;-3.56;71.43;98585.09;5023850;28;20045;-73
2024/01/15 00:30:36;;;;;;;1.08;0.47;;;;;;;-3.59;71.42;98583.41;5024228;28;20073;-74
2024/01/15 00:33:04;;;;;;;0.93;0.00;;;;;;;-3.59;71.12;98588.53;5021841;28;20057;-74
2024/01/15 00:35:31;;;;;;;0.00;0.00;;;;;;;-3.63;71.05;98586.81;5023160;28;20049;-73
2024/01/15 00:38:00;;;;;;;3.13;0.17;;;;;;;-3.66;71.20;98579.16;5026010;28;20193;-74
2024/01/15 00:40:26;;;;;;;2.00;0.00;;;;;;;-3.68;70.79;98583.41;5025856;28;20520;-73
2024/01/15 00:42:53;;;;;;;0.60;0.00;;;;;;;-3.71;71.30;98568.91;5021330;28;20595;-73
2024/01/15 00:45:20;;;;;;;0.00;0.00;;;;;;;-3.71;71.03;98568.06;5026354;28;20080;-74
2024/01/15 00:47:47;;;;;;;1.55;0.00;;;;;;;-3.73;71.51;98559.59;5019409;28;20076;-74
2024/01/15 00:50:14;;;;;;;0.00;0.00;;;;;;;-3.73;71.21;98568.09;5021649;28;20089;-74
2024/01/15 00:52:41;;;;;;;0.00;0.00;;;;;;;-3.75;71.35;98566.38;5022707;28;20476;-75
2024/01/15 00:55:10;;;;;;;2.78;0.10;;;;;;;-3.74;71.60;98557.84;5022226;28;20085;-72
2024/01/15 00:57:37;;;;;;;0.20;0.00;;;;;;;-3.77;71.06;98561.25;5022869;28;20041;-73
2024/01/15 01:00:04;;;;;;;2.17;0.00;;;;;;;-3.76;71.87;98554.44;5025832;28;20069;-74
2024/01/15 01:02:31;;;;;;;0.10;0.00;;;;;;;-3.77;71.45;98545.94;5025961;28;20037;-72
2024/01/15 01:04:58;;;;;;;0.68;0.00;;;;;;;-3.79;71.32;98547.66;5025092;28;20544;-80
2024/01/15 01:07:25;;;;;;;1.55;0.10;;;;;;;-3.81;71.15;98545.97;5031576;28;20531;-80
2024/01/15 01:09:52;;;;;;;0.00;0.00;;;;;;;-3.80;72.00;98545.09;5034393;28;20108;-80
2024/01/15 01:12:21;;;;;;;1.70;0.10;;;;;;;-3.80;71.48;98534.88;5028811;28;20083;-80
2024/01/15 01:14:47;;;;;;;0.20;0.05;;;;;;;-3.83;71.82;98537.44;5030410;28;20041;-80
2024/01/15 01:17:14;;;;;;;0.17;0.08;;;;;;;-3.83;70.95;98534.88;5028378;28;20080;-81
2024/01/15 01:19:41;;;;;;;0.00;0.00;;;;;;;-3.85;71.39;98534.03;5031298;28;20046;-81
2024/01/15 01:22:08;;;;;;;0.55;0.38;;;;;;;-3.86;71.54;98522.94;5026534;28;20077;-80
2024/01/15 01:24:35;;;;;;;0.00;0.00;;;;;;;-3.89;71.22;98527.22;5033162;28;20037;-80
2024/01/15 01:27:02;;;;;;;0.03;0.00;;;;;;;-3.89;71.40;98522.13;5034232;28;20049;-80
2024/01/15 01:29:31;;;;;;;0.30;0.10;;;;;;;-3.90;71.63;98522.94;5029624;28;20172;-80
2024/01/15 01:31:57;;;;;;;2.72;0.00;;;;;;;-3.91;71.20;98508.47;5032484;28;20152;-81
2024/01/15 01:34:24;;;;;;;1.42;0.10;;;;;;;-3.90;71.41;98515.28;5032744;28;20069;-81
2024/01/15 01:36:51;;;;;;;1.35;0.00;;;;;;;-3.95;71.25;98505.09;5026528;28;20088;-80
2024/01/15 01:39:18;;;;;;;1.00;0.10;;;;;;;-3.92;71.71;98502.53;5029413;28;20084;-80
2024/01/15 01:41:45;;;;;;;1.42;0.10;;;;;;;-3.90;71.85;98510.19;5026831;28;20107;-79
2024/01/15 01:44:12;;;;;;;0.10;0.00;;;;;;;-3.91;71.79;98505.94;5029651;28;20080;-80
2024/01/15 01:46:41;;;;;;;0.95;0.25;;;;;;;-3.92;71.99;98504.25;5031883;28;20081;-79
2024/01/15 01:49:08;;;;;;;0.13;0.10;;;;;;;-3.92;71.38;98499.13;5026589;28;20100;-78
2024/01/15 01:51:37;;;;;;;0.40;0.00;;;;;;;-3.97;71.85;98497.41;5028635;28;20073;-79
2024/01/15 01:54:05;;;;;;;0.93;0.05;;;;;;;-3.95;71.81;98490.59;5028311;28;20056;-78
2024/01/15 01:56:32;;;;;;;1.27;0.00;;;;;;;-3.97;71.54;98499.13;5031065;28;20145;-78
2024/01/15 01:58:59;;;;;;;0.00;0.00;;;;;;;-3.99;71.70;98500.81;5033752;28;20076;-79
2024/01/15 02:01:26;;;;;;;0.10;0.00;;;;;;;-4.00;71.85;98499.97;5025061;28;20127;-79
2024/01/15 02:03:56;;;;;;;0.00;0.00;;;;;;;-4.03;71.94;98488.91;5028280;28;20468;-74
2024/01/15 02:06:24;;;;;;;0.00;0.00;;;;;;;-4.01;72.02;98489.78;5028900;28;20048;-81
2024/01/15 02:08:51;;;;;;;0.22;0.10;;;;;;;-4.04;71.51;98490.63;5030838;28;20077;-82
2024/01/15 02:11:18;;;;;;;5.88;0.10;;;;;;;-4.05;71.86;98491.44;5033120;28;20080;-81
2024/01/15 02:13:45;;;;;;;0.40;0.00;;;;;;;-4.05;72.25;98496.56;5029918;28;20048;-81
2024/01/15 02:16:12;;;;;;;0.20;0.00;;;;;;;-4.04;72.34;98482.13;5023602;28;20061;-72
2024/01/15 02:18:43;;;;;;;0.80;0.00;;;;;;;-4.07;72.31;98482.97;5020967;28;20046;-72
2024/01/15 02:21:11;;;;;;;1.55;0.00;;;;;;;-4.07;72.11;98482.97;5020204;28;20088;-72
2024/01/15 02:23:40;;;;;;;0.40;0.00;;;;;;;-4.07;71.83;98488.06;5023059;28;20508;-72
2024/01/15 02:26:08;;;;;;;0.65;0.03;;;;;;;-4.10;72.04;98484.66;5017111;28;20064;-71
2024/01/15 02:28:35;;;;;;;2.22;0.10;;;;;;;-4.09;72.18;98483.81;5022250;28;20120;-72
2024/01/15 02:31:02;;;;;;;0.10;0.10;;;;;;;-4.11;72.12;98481.25;5023008;28;20069;-72
2024/01/15 02:33:29;;;;;;;2.70;0.00;;;;;;;-4.12;71.88;98484.66;5020079;28;20130;-72
2024/01/15 02:35:56;;;;;;;0.43;0.00;;;;;;;-4.13;71.69;98477.88;5020798;28;20092;-72
2024/01/15 02:38:23;;;;;;;0.10;0.10;;;;;;;-4.18;72.21;98472.75;5022175;28;20132;-72
2024/01/15 02:40:52;;;;;;;0.00;0.00;;;;;;;-4.15;71.88;98471.91;5023812;28;20448;-72
2024/01/15 02:43:19;;;;;;;1.48;0.00;;;;;;;-4.15;72.27;98481.28;5023021;28;20045;-72
2024/01/15 02:45:47;;;;;;;1.27;0.00;;;;;;;-4.22;72.15;98483.78;5022230;28;20554;-71
2024/01/15 02:48:14;;;;;;;2.47;0.80;;;;;;;-4.22;71.96;98477.84;5023484;28;20044;-72
2024/01/15 02:50:41;;;;;;;0.25;0.05;;;;;;;-4.24;72.36;98472.75;5020764;28;20076;-72
2024/01/15 02:53:07;;;;;;;0.08;0.00;;;;;;;-4.27;71.96;98465.09;5020437;28;20107;-72
2024/01/15 02:55:34;;;;;;;1.33;0.00;;;;;;;-4.24;72.32;98479.56;5021414;28;20598;-72
2024/01/15 02:58:02;;;;;;;0.10;0.00;;;;;;;-4.27;72.16;98479.56;5018505;28;20077;-72
2024/01/15 03:00:29;;;;;;;0.65;0.10;;;;;;;-4.25;71.96;98482.94;5024633;28;20079;-72
2024/01/15 03:02:56;;;;;;;0.65;0.10;;;;;;;-4.27;71.97;98479.56;5023295;28;20049;-72
2024/01/15 03:05:23;;;;;;;0.47;0.10;;;;;;;-4.32;72.10;98483.81;5020994;28;20118;-72
2024/01/15 03:07:50;;;;;;;2.88;0.22;;;;;;;-4.36;72.03;98477.00;5021340;28;20078;-72
2024/01/15 03:10:17;;;;;;;0.10;0.10;;;;;;;-4.37;72.08;98477.84;5023236;28;20080;-72
2024/01/15 03:12:44;;;;;;;1.17;0.00;;;;;;;-4.37;72.23;98480.41;5022412;28;20045;-71
2024/01/15 03:15:13;;;;;;;1.27;0.10;;;;;;;-4.38;71.97;98482.13;5015983;28;20132;-68
2024/01/15 03:17:40;;;;;;;0.47;0.00;;;;;;;-4.37;72.14;98486.34;5018802;28;20049;-69
2024/01/15 03:20:07;;;;;;;0.20;0.00;;;;;;;-4.37;72.16;98494.00;5021517;28;20508;-69
2024/01/15 03:22:34;;;;;;;0.50;0.00;;;;;;;-4.37;72.52;98495.72;5023289;28;20092;-69
2024/01/15 03:25:01;;;;;;;0.03;0.00;;;;;;;-4.40;72.10;98474.44;5022624;28;20085;-72
2024/01/15 03:27:28;;;;;;;1.65;0.03;;;;;;;-4.41;72.48;98477.00;5018167;28;20619;-72
2024/01/15 03:29:55;;;;;;;1.55;0.00;;;;;;;-4.43;72.24;98477.00;5019783;28;20575;-72
2024/01/15 03:32:23;;;;;;;0.65;0.03;;;;;;;-4.44;72.37;98488.06;5019095;28;20108;-72
2024/01/15 03:34:52;;;;;;;1.23;0.00;;;;;;;-4.46;72.30;98483.81;5021622;28;20077;-72
2024/01/15 03:37:19;;;;;;;0.25;0.00;;;;;;;-4.47;72.33;98482.09;5023641;28;20045;-72
2024/01/15 03:39:46;;;;;;;3.85;0.05;;;;;;;-4.49;72.05;98479.56;5022868;28;20425;-72
2024/01/15 03:42:14;;;;;;;0.28;0.10;;;;;;;-4.49;72.20;98482.09;5017440;28;20140;-72
2024/01/15 03:44:41;;;;;;;1.15;0.00;;;;;;;-4.48;72.56;98490.59;5021583;28;20128;-72
2024/01/15 03:47:08;;;;;;;0.55;0.10;;;;;;;-4.49;72.13;98494.00;5021076;28;20076;-72
2024/01/15 03:49:36;;;;;;;1.70;0.10;;;;;;;-4.49;72.31;98494.00;5017569;28;20761;-72
2024/01/15 03:52:03;;;;;;;0.43;0.10;;;;;;;-4.49;71.81;98492.31;5022421;28;20084;-71
2024/01/15 03:54:30;;;;;;;4.43;0.13;;;;;;;-4.50;71.93;98488.06;5025227;28;20120;-72
2024/01/15 03:56:57;;;;;;;0.75;0.10;;;;;;;-4.53;71.77;98493.16;5024331;28;20049;-72
2024/01/15 03:59:24;;;;;;;0.70;0.10;;;;;;;-4.54;71.40;98485.50;5026217;28;20354;-72
2024/01/15 04:01:51;;;;;;;0.38;0.10;;;;;;;-4.56;71.35;98488.03;5020805;28;20073;-72
2024/01/15 04:04:18;;;;;;;0.60;0.00;;;;;;;-4.58;71.74;98476.16;5024821;28;20060;-71
2024/01/15 04:06:47;;;;;;;1.40;0.10;;;;;;;-4.58;71.88;98482.09;5024431;28;20134;-72
2024/01/15 04:09:14;;;;;;;0.10;0.10;;;;;;;-4.60;72.02;98485.50;5022208;28;20046;-72
2024/01/15 04:11:42;;;;;;;0.00;0.00;;;;;;;-4.62;71.63;98472.72;5023374;28;20146;-72
2024/01/15 04:14:09;;;;;;;2.47;0.08;;;;;;;-4.61;71.74;98489.75;5023597;28;21228;-72
2024/01/15 04:16:35;;;;;;;0.00;0.00;;;;;;;-4.62;71.71;98478.66;5024205;28;20508;-74
2024/01/15 04:19:02;;;;;;;0.00;0.00;;;;;;;-4.60;71.97;98488.03;5026056;28;20103;-72
2024/01/15 04:21:29;;;;;;;0.10;0.00;;;;;;;-4.61;71.88;98484.66;5026432;28;20073;-72
2024/01/15 04:23:58;;;;;;;0.20;0.20;;;;;;;-4.63;71.69;98476.97;5022472;28;20073;-72
2024/01/15 04:26:25;;;;;;;1.55;0.13;;;;;;;-4.62;71.91;98490.59;5032500;28;20468;-79
2024/01/15 04:28:51;;;;;;;0.32;0.10;;;;;;;-4.64;71.22;98489.75;5027110;28;20080;-79
2024/01/15 04:31:23;;;;;;;2.70;0.10;;;;;;;-4.68;71.09;98482.91;5031550;28;20077;-80
2024/01/15 04:33:50;;;;;;;2.30;0.32;;;;;;;-4.69;70.69;98487.19;5037468;28;20451;-79
2024/01/15 04:36:17;;;;;;;0.73;0.45;;;;;;;-4.72;71.35;98488.88;5023468;28;20457;-68
2024/01/15 04:38:44;;;;;;;0.52;0.10;;;;;;;-4.72;71.06;98492.28;5024941;28;20073;-69
2024/01/15 04:41:13;;;;;;;4.10;0.20;;;;;;;-4.74;70.72;98480.38;5024894;28;20136;-68
2024/01/15 04:43:40;;;;;;;0.35;0.15;;;;;;;-4.75;71.04;98484.63;5022363;28;20527;-69
2024/01/15 04:46:07;;;;;;;2.67;0.20;;;;;;;-4.75;71.13;98489.72;5022684;28;20936;-69
2024/01/15 04:48:34;;;;;;;0.90;0.20;;;;;;;-4.75;71.18;98496.53;5020525;28;20049;-69
2024/01/15 04:51:01;;;;;;;0.40;0.10;;;;;;;-4.76;71.37;98503.31;5017968;28;20116;-69
2024/01/15 04:53:28;;;;;;;0.10;0.00;;;;;;;-4.76;71.29;98494.81;5023995;28;20081;-69
2024/01/15 04:55:55;;;;;;;0.38;0.20;;;;;;;-4.77;70.97;98496.50;5024973;28;20088;-68
2024/01/15 04:58:25;;;;;;;1.50;0.25;;;;;;;-4.79;71.07;98489.69;5024242;28;20076;-69
2024/01/15 05:00:52;;;;;;;0.90;0.10;;;;;;;-4.80;71.21;98490.56;5018970;28;20050;-68
2024/01/15 05:03:20;;;;;;;1.85;0.20;;;;;;;-4.82;71.29;98494.78;5020285;28;20736;-69
2024/01/15 05:05:47;;;;;;;3.47;0.20;;;;;;;-4.82;71.69;98492.25;5024498;28;20045;-69
2024/01/15 05:08:13;;;;;;;0.85;0.10;;;;;;;-4.85;70.94;98487.97;5023945;28;20073;-69
2024/01/15 05:10:40;;;;;;;2.40;0.20;;;;;;;-4.86;70.94;98486.28;5022269;28;20076;-69
2024/01/15 05:13:07;;;;;;;0.20;0.10;;;;;;;-4.86;71.33;98489.69;5020411;28;20046;-69
2024/01/15 05:15:36;;;;;;;3.75;0.20;;;;;;;-4.84;71.55;98482.06;5024888;28;20516;-69
2024/01/15 05:18:03;;;;;;;1.23;0.20;;;;;;;-4.83;71.63;98495.66;5022936;28;20081;-69
2024/01/15 05:20:30;;;;;;;0.50;0.20;;;;;;;-4.82;71.35;98494.78;5024838;28;20077;-69
2024/01/15 05:22:56;;;;;;;2.38;0.28;;;;;;;-4.85;70.53;98498.19;5023563;28;20495;-69
2024/01/15 05:25:23;;;;;;;2.25;0.20;;;;;;;-4.87;70.42;98488.00;5015936;28;20121;-69
2024/01/15 05:27:50;;;;;;;1.33;0.30;;;;;;;-4.88;70.56;98487.97;5021164;28;20081;-69
2024/01/15 05:30:17;;;;;;;2.47;0.20;;;;;;;-4.94;70.41;98481.16;5009880;28;20454;-69
2024/01/15 05:32:46;;;;;;;1.55;0.65;;;;;;;-4.91;70.46;98481.16;5018367;28;20054;-70
2024/01/15 05:35:13;;;;;;;1.02;0.20;;;;;;;-4.89;70.87;98492.22;5018672;28;20076;-74
2024/01/15 05:37:45;;;;;;;0.98;0.40;;;;;;;-4.89;69.88;98494.78;5024064;28;20069;-75
2024/01/15 05:40:13;;;;;;;3.90;0.30;;;;;;;-4.93;69.49;98487.09;5023832;28;20091;-74
2024/01/15 05:42:40;;;;;;;1.50;0.30;;;;;;;-4.91;69.72;98493.06;5025023;28;20053;-74
2024/01/15 05:45:08;;;;;;;1.85;0.40;;;;;;;-4.92;69.60;98502.44;5026231;28;20080;-78
2024/01/15 05:47:35;;;;;;;0.68;0.20;;;;;;;-4.94;69.97;98501.56;5027786;28;20081;-78
2024/01/15 05:50:03;;;;;;;1.92;0.30;;;;;;;-4.95;69.87;98502.44;5025964;28;20106;-78
2024/01/15 05:52:31;;;;;;;0.70;0.20;;;;;;;-4.96;69.74;98502.41;5029812;28;20049;-79
2024/01/15 05:54:58;;;;;;;0.77;0.20;;;;;;;-5.00;68.78;98504.09;5025750;28;20518;-78
2024/01/15 05:57:25;;;;;;;0.47;0.38;;;;;;;-5.03;69.20;98499.00;5029970;28;20084;-78
2024/01/15 05:59:52;;;;;;;0.20;0.10;;;;;;;-5.05;69.33;98503.22;5030810;28;20076;-78
2024/01/15 06:02:19;;;;;;;2.03;0.57;;;;;;;-5.05;68.89;98503.22;5025689;28;20049;-78
2024/01/15 06:04:46;;;;;;;0.50;0.20;;;;;;;-5.09;69.00;98494.72;5029979;28;20055;-78
2024/01/15 06:07:15;;;;;;;0.28;0.17;;;;;;;-5.09;69.13;98506.63;5030443;28;20073;-78
2024/01/15 06:09:42;;;;;;;4.68;1.95;;;;;;;-5.14;68.46;98504.03;5032088;28;20081;-78
2024/01/15 06:12:09;;;;;;;0.63;0.32;;;;;;;-5.14;68.29;98514.25;5024839;28;20099;-79
2024/01/15 06:14:36;;;;;;;0.38;0.10;;;;;;;-5.16;68.28;98512.53;5029009;28;20080;-78
2024/01/15 06:17:03;;;;;;;0.52;0.22;;;;;;;-5.19;68.46;98509.97;5029026;28;20408;-78
2024/01/15 06:19:30;;;;;;;0.57;0.30;;;;;;;-5.22;68.83;98520.16;5022897;28;20069;-79
2024/01/15 06:21:57;;;;;;;0.70;0.30;;;;;;;-5.20;67.57;98518.47;5027501;28;20100;-79
2024/01/15 06:24:25;;;;;;;2.63;0.50;;;;;;;-5.24;67.96;98521.84;5028860;28;20037;-78
2024/01/15 06:26:52;;;;;;;2.45;0.45;;;;;;;-5.26;67.73;98516.75;5026721;28;20079;-79
2024/01/15 06:29:19;;;;;;;2.00;0.70;;;;;;;-5.26;67.88;98518.47;5028282;28;20475;-78
2024/01/15 06:31:46;;;;;;;2.25;0.73;;;;;;;-5.28;67.64;98526.06;5024815;28;20073;-78
2024/01/15 06:34:13;;;;;;;1.13;0.50;;;;;;;-5.31;67.48;98547.31;5027297;28;20081;-79
2024/01/15 06:36:41;;;;;;;1.88;0.40;;;;;;;-5.36;67.41;98526.03;5018858;28;20045;-78
2024/01/15 06:39:08;;;;;;;0.30;0.20;;;;;;;-5.36;67.75;98543.88;5025717;28;20045;-77
2024/01/15 06:41:41;;;;;;;2.20;0.77;;;;;;;-5.34;67.92;98542.19;5029611;28;20053;-79
2024/01/15 06:44:11;;;;;;;1.48;0.82;;;;;;;-5.38;68.06;98540.50;5027870;28;20125;-79
2024/01/15 06:46:38;;;;;;;3.35;0.80;;;;;;;-5.36;67.51;98531.13;5027294;28;20042;-78
2024/01/15 06:49:05;;;;;;;3.25;0.82;;;;;;;-5.37;67.58;98539.63;5022145;28;20072;-77
2024/01/15 06:51:32;;;;;;;2.17;0.60;;;;;;;-5.35;68.19;98547.31;5024177;28;20844;-78
2024/01/15 06:53:59;;;;;;;0.20;0.10;;;;;;;-5.35;68.34;98545.59;5026997;28;20124;-73
2024/01/15 06:56:26;;;;;;;0.47;0.28;;;;;;;-5.36;68.30;98545.56;5024393;28;20349;-77
2024/01/15 06:58:54;;;;;;;3.05;0.88;;;;;;;-5.34;67.49;98549.84;5025605;28;20077;-78
2024/01/15 07:01:21;;;;;;;1.25;0.73;;;;;;;-5.33;67.27;98550.69;5023389;28;20072;-77
2024/01/15 07:03:48;;;;;;;1.08;0.43;;;;;;;-5.34;68.03;98543.91;5030094;28;20077;-77
2024/01/15 07:06:15;;;;;;;1.23;0.90;;;;;;;-5.35;67.72;98550.69;5027296;28;20042;-77
2024/01/15 07:08:42;;;;;;;2.40;0.52;;;;;;;-5.37;67.10;98551.53;5027468;28;20496;-75
2024/01/15 07:11:09;;;;;;;1.73;0.55;;;;;;;-5.39;67.29;98532.81;5025786;28;20041;-77
2024/01/15 07:13:37;;;;;;;1.02;0.50;;;;;;;-5.43;67.74;98544.69;5030847;28;20569;-76
2024/01/15 07:16:07;;;;;;;0.68;0.38;;;;;;;-5.39;67.63;98548.94;5023410;28;20080;-78
2024/01/15 07:18:34;;;;;;;1.65;0.50;;;;;;;-5.38;67.93;98552.38;5023713;28;20136;-75
2024/01/15 07:21:02;;;;;;;1.38;0.55;;;;;;;-5.41;67.78;98550.66;5016280;28;20073;-76
2024/01/15 07:23:29;;;;;;;2.28;0.75;;;;;;;-5.40;67.88;98552.34;5016443;28;20554;-76
2024/01/15 07:25:56;;;;;;;3.47;1.10;;;;;;;-5.39;67.60;98543.00;5025901;28;20085;-76
2024/01/15 07:28:23;;;;;;;0.60;0.30;;;;;;;-5.44;67.73;98545.56;5022693;28;20088;-76
2024/01/15 07:30:50;;;;;;;2.42;1.02;;;;;;;-5.41;67.53;98550.66;5027313;28;20076;-76
2024/01/15 07:33:18;;;;;;;4.35;0.70;;;;;;;-5.40;67.51;98554.06;5022065;28;20092;-77
2024/01/15 07:35:45;;;;;;;8.65;0.95;;;;;;;-5.40;67.68;98551.50;5028906;28;20069;-76
2024/01/15 07:38:12;;;;;;;1.42;0.60;;;;;;;-5.41;67.87;98563.41;5029347;28;20119;-77
2024/01/15 07:40:39;;;;;;;4.55;0.60;;;;;;;-5.41;67.79;98552.34;5029949;28;20108;-77
2024/01/15 07:43:06;;;;;;;1.13;0.30;;;;;;;-5.43;67.92;98565.09;5027480;28;20081;-77
2024/01/15 07:45:33;;;;;;;2.65;0.82;;;;;;;-5.42;67.42;98569.31;5032943;28;20077;-78
2024/01/15 07:48:00;;;;;;;3.28;0.40;;;;;;;-5.45;67.07;98569.31;5030352;28;20420;-77
2024/01/15 07:50:28;;;;;;;2.10;0.80;;;;;;;-5.47;66.61;98565.88;5032313;28;20096;-78
2024/01/15 07:52:55;;;;;;;2.63;0.40;;;;;;;-5.47;67.20;98586.28;5028156;28;20508;-79
2024/01/15 07:55:22;;;;;;;1.20;0.45;;;;;;;-5.49;67.09;98577.78;5029873;28;20061;-72
2024/01/15 07:57:50;;;;;;;0.43;0.30;;;;;;;-5.54;66.81;98585.41;5027541;28;20069;-73
2024/01/15 08:00:17;;;;;;;0.30;0.20;;;;;;;-5.54;66.87;98575.19;5024271;28;20124;-72
2024/01/15 08:02:44;;;;;;;2.55;0.38;;;;;;;-5.55;66.36;98573.50;5022599;28;20142;-72
2024/01/15 08:05:11;;;;;;;1.75;0.50;;;;;;;-5.56;66.71;98579.44;5027894;28;20476;-72
2024/01/15 08:07:39;;;;;;;0.40;0.20;;;;;;;-5.55;66.63;98577.75;5027874;28;20080;-72
2024/01/15 08:10:07;;;;;;;0.80;0.10;;;;;;;-5.57;67.02;98589.63;5027077;28;20143;-72
2024/01/15 08:12:34;;;;;;;0.65;0.25;;;;;;;-5.57;67.12;98581.97;5022789;28;20505;-73
2024/01/15 08:15:01;;;;;;;7.53;0.20;;;;;;;-5.57;66.55;98593.03;5025404;28;20462;-73
2024/01/15 08:17:28;;;;;;;2.83;0.30;;;;;;;-5.59;66.01;98598.94;5022280;28;20081;-72
2024/01/15 08:19:56;;;;;;;3.55;0.60;;;;;;;-5.60;65.68;98594.69;5024220;28;20057;-72
2024/01/15 08:22:23;;;;;;;0.20;0.10;;;;;;;-5.62;66.42;98594.69;5024357;28;20454;-72
2024/01/15 08:24:51;;;;;;;0.57;0.20;;;;;;;-5.60;66.27;98592.16;5023509;28;20072;-72
2024/01/15 08:27:19;;;;;;;1.65;0.13;;;;;;;-5.66;66.46;98576.84;5025389;28;20503;-72
2024/01/15 08:29:46;;;;;;;2.17;0.20;;;;;;;-5.59;66.31;98607.44;5023258;28;20052;-71
2024/01/15 08:32:15;;;;;;;0.47;0.10;;;;;;;-5.59;66.74;98593.84;5023303;28;20105;-72
2024/01/15 08:34:43;;;;;;;2.15;0.10;;;;;;;-5.61;66.70;98593.84;5024026;28;20467;-72
2024/01/15 08:37:09;;;;;;;2.22;0.10;;;;;;;-5.58;66.83;98593.03;5023741;28;20048;-72
2024/01/15 08:39:38;;;;;;;2.53;0.20;;;;;;;-5.56;66.95;98592.16;5022099;28;20099;-72
2024/01/15 08:42:07;;;;;;;0.85;0.30;;;;;;;-5.55;67.23;98590.50;5023459;28;20045;-72
2024/01/15 08:44:34;;;;;;;1.02;0.10;;;;;;;-5.55;66.79;98603.22;5024886;28;20046;-76
2024/01/15 08:47:01;;;;;;;0.77;0.10;;;;;;;-5.55;66.31;98593.91;5022940;28;20569;-72
2024/01/15 08:49:29;;;;;;;0.10;0.00;;;;;;;-5.56;66.25;98601.50;5021576;28;20129;-72
2024/01/15 08:51:56;;;;;;;0.98;0.10;;;;;;;-5.56;66.60;98601.50;5024021;28;20084;-72
2024/01/15 08:54:23;;;;;;;0.88;0.08;;;;;;;-5.55;66.63;98603.22;5021152;28;20124;-72
2024/01/15 08:56:50;;;;;;;0.88;0.13;;;;;;;-5.55;66.84;98593.03;5023312;28;20124;-72
2024/01/15 08:59:24;;;;;;;1.70;0.10;;;;;;;-5.54;66.75;98600.69;5020696;28;20084;-73
2024/01/15 09:01:51;;;;;;;0.20;0.10;;;;;;;-5.53;65.97;98598.97;5020760;28;20136;-72
2024/01/15 09:04:18;;;;;;;4.28;0.17;;;;;;;-5.56;66.55;98596.41;5021222;28;20049;-77
2024/01/15 09:06:46;;;;;;;0.15;0.10;;;;;;;-5.53;66.22;98612.56;5028367;28;20077;-76
2024/01/15 09:09:14;;;;;;;0.68;0.13;;;;;;;-5.54;66.13;98612.56;5025491;28;20044;-76
2024/01/15 09:11:41;;;;;;;0.63;0.10;;;;;;;-5.54;66.31;98607.47;5023114;28;20050;-75
2024/01/15 09:14:09;;;;;;;0.40;0.10;;;;;;;-5.55;65.99;98608.34;5022587;28;20088;-74
2024/01/15 09:16:37;;;;;;;0.15;0.10;;;;;;;-5.55;66.42;98608.34;5020733;28;20403;-73
2024/01/15 09:19:04;;;;;;;1.52;0.10;;;;;;;-5.53;66.12;98612.56;5018809;28;20052;-74
2024/01/15 09:21:31;;;;;;;2.00;0.20;;;;;;;-5.56;66.35;98611.69;5021067;28;20127;-73
2024/01/15 09:23:58;;;;;;;0.00;0.00;;;;;;;-5.53;66.27;98621.91;5021789;28;20081;-74
2024/01/15 09:26:25;;;;;;;7.18;1.42;;;;;;;-5.51;66.28;98625.34;5022378;28;20053;-73
2024/01/15 09:28:53;;;;;;;0.13;0.10;;;;;;;-5.53;65.30;98619.38;5021027;28;20085;-73
2024/01/15 09:31:20;;;;;;;0.10;0.00;;;;;;;-5.54;65.51;98615.97;5020759;28;20073;-74
2024/01/15 09:33:48;;;;;;;0.63;0.10;;;;;;;-5.53;65.58;98611.72;5018533;28;20041;-75
2024/01/15 09:36:15;;;;;;;1.33;0.10;;;;;;;-5.55;64.98;98614.28;5021149;28;20469;-73
2024/01/15 09:38:42;;;;;;;1.23;0.05;;;;;;;-5.54;65.72;98615.13;5016505;28;20057;-74
2024/01/15 09:41:09;;;;;;;2.17;0.10;;;;;;;-5.54;65.64;98613.41;5023550;28;20089;-74
2024/01/15 09:43:38;;;;;;;2.72;1.20;;;;;;;-5.52;65.12;98610.91;5023579;28;20077;-74
2024/01/15 09:46:05;;;;;;;3.70;0.20;;;;;;;-5.55;65.32;98624.47;5021897;28;20404;-74
2024/01/15 09:48:34;;;;;;;1.10;0.30;;;;;;;-5.53;64.52;98616.81;5020274;28;20579;-74
2024/01/15 09:51:03;;;;;;;1.55;0.10;;;;;;;-5.56;64.45;98622.75;5019409;28;20076;-74
2024/01/15 09:53:30;;;;;;;4.47;0.10;;;;;;;-5.58;64.75;98618.50;5019724;28;20069;-74
2024/01/15 09:55:57;;;;;;;0.35;0.03;;;;;;;-5.58;64.84;98623.59;5015414;28;20125;-74
2024/01/15 09:58:24;;;;;;;0.95;0.10;;;;;;;-5.57;65.04;98630.38;5016945;28;20073;-74
2024/01/15 10:00:52;;;;;;;0.85;0.20;;;;;;;-5.56;65.25;98647.38;5018933;28;20041;-74
2024/01/15 10:03:21;;;;;;;1.45;0.10;;;;;;;-5.57;64.67;98635.47;5016449;28;20129;-74
2024/01/15 10:05:48;;;;;;;0.30;0.10;;;;;;;-5.58;64.78;98633.78;5018134;28;20389;-74
2024/01/15 10:08:17;;;;;;;0.10;0.10;;;;;;;-5.62;65.05;98654.97;5019390;28;20140;-75
2024/01/15 10:10:44;;;;;;;0.08;0.08;;;;;;;-5.56;65.10;98644.81;5018374;28;20578;-73
2024/01/15 10:13:12;;;;;;;1.00;0.20;;;;;;;-5.57;64.46;98633.78;5018564;28;20721;-73
2024/01/15 10:15:39;;;;;;;0.40;0.10;;;;;;;-5.56;63.96;98647.38;5020073;28;20049;-70
2024/01/15 10:18:06;;;;;;;0.22;0.10;;;;;;;-5.57;64.11;98643.13;5016331;28;20117;-70
2024/01/15 10:20:33;;;;;;;1.08;0.20;;;;;;;-5.58;64.58;98629.53;5017811;28;20459;-70
2024/01/15 10:23:00;;;;;;;0.43;0.10;;;;;;;-5.56;64.35;98649.91;5016418;28;20046;-69
2024/01/15 10:25:29;;;;;;;0.98;0.10;;;;;;;-5.56;64.54;98640.56;5014707;28;20132;-74
2024/01/15 10:28:02;;;;;;;0.75;0.10;;;;;;;-5.58;64.83;98649.06;5021674;28;20055;-74
2024/01/15 10:30:29;;;;;;;0.98;0.20;;;;;;;-5.53;64.61;98652.47;5017525;28;20514;-74
2024/01/15 10:33:01;;;;;;;0.05;0.05;;;;;;;-5.52;64.31;98667.81;5018330;28;20073;-74
2024/01/15 10:35:29;;;;;;;1.98;0.40;;;;;;;-5.52;64.35;98659.31;5020971;28;20049;-74
2024/01/15 10:37:56;;;;;;;4.30;0.10;;;;;;;-5.55;62.95;98664.38;5020091;28;20053;-74
2024/01/15 10:40:23;;;;;;;0.50;0.10;;;;;;;-5.52;63.40;98656.75;5012756;28;20092;-75
2024/01/15 10:42:51;;;;;;;0.00;0.00;;;;;;;-5.52;64.15;98656.75;5019578;28;20124;-74
2024/01/15 10:45:19;;;;;;;0.55;0.10;;;;;;;-5.52;62.96;98659.31;5021324;28;20073;-74
2024/01/15 10:47:46;;;;;;;0.90;0.15;;;;;;;-5.53;62.64;98655.88;5020456;28;20053;-74
2024/01/15 10:50:13;;;;;;;2.28;0.10;;;;;;;-5.52;62.35;98669.50;5018390;28;20077;-75
2024/01/15 10:52:43;;;;;;;0.22;0.00;;;;;;;-5.57;62.29;98643.97;5017518;28;20099;-74
2024/01/15 10:55:10;;;;;;;0.95;0.10;;;;;;;-5.53;62.32;98667.78;5019129;28;20057;-74
2024/01/15 10:57:38;;;;;;;2.78;1.35;;;;;;;-5.54;62.55;98666.94;5021148;28;20083;-74
2024/01/15 11:00:14;;;;;;;2.28;0.10;;;;;;;-5.54;62.22;98668.63;5015828;28;20125;-75
2024/01/15 11:02:42;;;;;;;0.32;0.00;;;;;;;-5.53;62.58;98671.16;5017236;28;20047;-74
2024/01/15 11:05:09;;;;;;;1.50;0.15;;;;;;;-5.55;62.12;98662.69;5019699;28;20125;-74
2024/01/15 11:07:36;;;;;;;0.15;0.00;;;;;;;-5.50;62.19;98667.78;5018805;28;20484;-74
2024/01/15 11:10:05;;;;;;;0.00;0.00;;;;;;;-5.52;62.01;98672.06;5019334;28;20053;-73
2024/01/15 11:12:33;;;;;;;3.40;0.35;;;;;;;-5.50;62.48;98672.91;5019948;28;20512;-74
2024/01/15 11:15:05;;;;;;;0.25;0.10;;;;;;;-5.50;61.64;98685.63;5021583;28;20050;-74
2024/01/15 11:18:01;;;;;;;4.70;0.00;;;;;;;-5.48;61.91;98678.88;5018914;28;20045;-74
2024/01/15 11:20:28;;;;;;;1.85;0.00;;;;;;;-5.49;61.00;98668.69;5019329;28;20046;-73
2024/01/15 11:22:57;;;;;;;1.30;0.28;;;;;;;-5.50;60.92;98679.69;4996315;28;20085;-74
2024/01/15 11:25:24;;;;;;;0.70;0.15;;;;;;;-5.49;61.98;98677.16;5023413;28;20045;-73
2024/01/15 11:27:52;;;;;;;3.45;0.10;;;;;;;-5.48;61.48;98667.81;5021136;28;20554;-73
2024/01/15 11:30:21;;;;;;;2.28;0.10;;;;;;;-5.48;61.23;98681.41;5017959;28;20073;-73
2024/01/15 11:32:48;;;;;;;0.28;0.00;;;;;;;-5.45;61.84;98667.84;5019543;28;20125;-73
2024/01/15 11:35:16;;;;;;;0.50;0.10;;;;;;;-5.45;62.35;98671.25;5018397;28;20084;-70